Time;durP1;ratioP1;P1;durP2;ratioP2;P2;SDS_P1;SDS_P2;PMS_P1;PMS_P2;Temp;Humidity;BMP_temperature;BMP_pressure;BME280_temperature;BME280_humidity;BME280_pressure;Samples;Min_cycle;Max_cycle;Signal;HPM_P1;HPM_P2
2022/06/25 00:01:22;;;;;;;9.70;3.50;;;;;;;21.28;47.84;100942.72;5092560;28;20425;-55
2022/06/25 00:03:49;;;;;;;9.75;4.25;;;;;;;21.29;48.02;100943.53;5092779;28;20086;-55
2022/06/25 00:06:16;;;;;;;7.65;3.03;;;;;;;21.02;48.29;100938.38;5093357;28;20028;-55
2022/06/25 00:08:44;;;;;;;9.15;3.70;;;;;;;21.03;48.24;100940.84;5092734;28;20145;-55
2022/06/25 00:13:55;;;;;;;10.45;3.50;;;;;;;20.99;48.55;100936.22;5096712;28;20523;-55
2022/06/25 00:16:22;;;;;;;9.98;3.55;;;;;;;20.79;49.45;100942.47;5096517;28;20024;-55
2022/06/25 00:18:48;;;;;;;14.40;3.83;;;;;;;20.66;49.14;100940.31;5096277;28;20209;-55
2022/06/25 00:21:14;;;;;;;15.80;4.80;;;;;;;20.38;50.03;100936.16;5096107;28;20016;-55
2022/06/25 00:23:40;;;;;;;10.55;4.10;;;;;;;19.98;51.24;100934.94;5096113;28;20024;-55
2022/06/25 00:26:07;;;;;;;12.30;4.18;;;;;;;19.75;51.47;100934.31;5096494;28;20028;-55
2022/06/25 00:28:33;;;;;;;8.40;4.50;;;;;;;19.72;51.41;100937.56;5096353;28;20047;-55
2022/06/25 00:30:59;;;;;;;9.07;3.90;;;;;;;19.96;51.14;100937.94;5096086;28;20028;-54
2022/06/25 00:33:25;;;;;;;9.10;3.60;;;;;;;19.75;51.60;100939.72;5095721;28;20107;-54
2022/06/25 00:35:51;;;;;;;11.35;4.32;;;;;;;19.77;51.11;100937.59;5095881;28;20030;-55
2022/06/25 00:38:18;;;;;;;10.52;3.88;;;;;;;20.15;51.58;100930.09;5096224;28;20021;-56
2022/06/25 00:40:45;;;;;;;11.82;4.18;;;;;;;19.59;51.84;100932.59;5095901;28;20495;-55
2022/06/25 00:43:11;;;;;;;11.05;4.25;;;;;;;19.80;51.75;100940.84;5095447;28;20043;-56
2022/06/25 00:45:37;;;;;;;11.95;4.30;;;;;;;19.81;51.31;100920.75;5095979;28;20032;-56
2022/06/25 00:48:04;;;;;;;9.02;3.95;;;;;;;19.26;52.78;100926.38;5096200;28;20460;-55
2022/06/25 00:50:30;;;;;;;10.48;4.50;;;;;;;19.60;52.57;100920.66;5095914;28;20024;-55
2022/06/25 00:52:58;;;;;;;9.35;4.28;;;;;;;19.34;52.94;100925.09;5095648;28;20457;-55
2022/06/25 00:55:30;;;;;;;8.05;3.83;;;;;;;19.03;53.83;100910.50;5095292;28;20029;-55
2022/06/25 00:58:00;;;;;;;10.10;3.92;;;;;;;19.22;53.79;100909.03;5095333;28;20031;-55
2022/06/25 01:00:27;;;;;;;5.63;3.38;;;;;;;19.51;52.54;100906.75;5095384;28;20028;-53
2022/06/25 01:02:54;;;;;;;7.82;3.13;;;;;;;19.74;52.09;100904.69;5095239;28;20031;-53
2022/06/25 01:05:20;;;;;;;7.85;4.30;;;;;;;19.59;52.15;100910.88;5095188;28;20037;-53
2022/06/25 01:07:49;;;;;;;7.80;4.05;;;;;;;19.63;52.40;100913.88;5094966;28;20032;-51
2022/06/25 01:10:16;;;;;;;6.65;3.55;;;;;;;19.08;53.07;100917.88;5095406;28;20396;-52
2022/06/25 01:12:43;;;;;;;12.10;4.63;;;;;;;19.17;53.07;100913.59;5094818;28;20039;-49
2022/06/25 01:15:15;;;;;;;7.68;3.75;;;;;;;19.02;53.62;100916.19;5094803;28;20024;-53
2022/06/25 01:17:43;;;;;;;6.72;3.53;;;;;;;18.92;54.75;100908.78;5094954;28;20383;-53
2022/06/25 01:20:10;;;;;;;8.82;4.22;;;;;;;18.90;54.21;100906.34;5094858;28;20028;-52
2022/06/25 01:22:36;;;;;;;5.88;3.42;;;;;;;18.56;54.72;100916.59;5093815;28;20457;-54
2022/06/25 01:25:03;;;;;;;7.88;3.78;;;;;;;18.79;54.61;100920.91;5094829;28;20397;-53
2022/06/25 01:27:29;;;;;;;6.88;4.15;;;;;;;18.28;55.13;100914.16;5095233;28;20024;-53
2022/06/25 01:29:55;;;;;;;9.57;4.10;;;;;;;18.31;55.21;100911.75;5094879;28;20025;-52
2022/06/25 01:32:21;;;;;;;10.50;4.13;;;;;;;17.87;57.25;100910.97;5094658;28;20034;-52
2022/06/25 01:34:47;;;;;;;10.40;4.38;;;;;;;18.09;55.75;100910.97;5094762;28;20473;-53
2022/06/25 01:37:14;;;;;;;9.00;3.20;;;;;;;18.46;55.50;100921.94;5094739;28;20043;-52
2022/06/25 01:39:40;;;;;;;9.13;4.05;;;;;;;18.17;54.89;100914.06;5094763;28;20098;-53
2022/06/25 01:42:58;;;;;;;6.72;3.80;;;;;;;18.28;55.47;100914.97;5094572;28;20035;-54
2022/06/25 01:44:52;;;;;;;8.65;3.78;;;;;;;18.52;54.80;100918.19;5094358;28;20059;-51
2022/06/25 01:47:18;;;;;;;6.85;4.20;;;;;;;18.67;54.39;100915.66;5094559;28;20043;-52
2022/06/25 01:49:44;;;;;;;10.13;4.70;;;;;;;18.32;54.83;100916.13;5094501;28;20031;-54
2022/06/25 01:52:13;;;;;;;5.53;3.67;;;;;;;18.27;55.47;100924.19;5094382;28;20073;-51
2022/06/25 01:54:40;;;;;;;11.02;4.30;;;;;;;17.98;55.75;100920.88;5094502;28;20487;-52
2022/06/25 01:57:06;;;;;;;7.10;3.78;;;;;;;18.19;55.24;100928.16;5094036;28;20059;-51
2022/06/25 01:59:32;;;;;;;8.13;4.00;;;;;;;18.42;55.01;100931.63;5094048;28;20020;-55
2022/06/25 02:01:58;;;;;;;5.97;4.00;;;;;;;17.96;56.16;100930.31;5094346;28;20032;-53
2022/06/25 02:04:24;;;;;;;7.10;4.15;;;;;;;17.79;56.73;100922.28;5094346;28;20031;-54
2022/06/25 02:06:51;;;;;;;4.07;3.05;;;;;;;17.77;56.74;100935.25;5094238;28;20107;-51
2022/06/25 02:09:17;;;;;;;9.90;3.90;;;;;;;17.46;57.48;100931.28;5094101;28;20020;-52
2022/06/25 02:11:43;;;;;;;6.70;3.97;;;;;;;17.19;58.27;100931.97;5093967;28;20043;-52
2022/06/25 02:14:09;;;;;;;9.52;4.07;;;;;;;16.99;59.58;100931.63;5093879;28;20116;-54
2022/06/25 02:16:35;;;;;;;10.00;4.35;;;;;;;16.50;60.88;100940.25;5094152;28;20482;-51
2022/06/25 02:19:02;;;;;;;8.02;4.35;;;;;;;16.18;62.66;100944.50;5094083;28;20020;-54
2022/06/25 02:21:28;;;;;;;8.68;4.13;;;;;;;16.22;62.70;100942.97;5094374;28;20054;-49
2022/06/25 02:23:54;;;;;;;10.55;4.93;;;;;;;15.99;63.79;100941.16;5094109;28;20059;-53
2022/06/25 02:26:20;;;;;;;8.23;4.60;;;;;;;15.31;66.20;100945.34;5094268;28;20047;-52
2022/06/25 02:28:46;;;;;;;8.73;5.32;;;;;;;15.68;65.27;100943.22;5093762;28;20032;-53
2022/06/25 02:31:13;;;;;;;14.68;6.75;;;;;;;15.09;67.58;100941.56;5093830;28;20028;-54
2022/06/25 02:33:39;;;;;;;10.73;6.22;;;;;;;15.19;67.84;100948.03;5093156;28;20032;-53
2022/06/25 02:36:05;;;;;;;12.32;5.85;;;;;;;15.13;68.21;100946.28;5093708;28;20024;-49
2022/06/25 02:38:31;;;;;;;12.20;6.75;;;;;;;15.12;68.38;100946.50;5093646;28;20029;-53
2022/06/25 02:40:57;;;;;;;10.15;5.78;;;;;;;15.09;68.40;100942.38;5094303;28;20468;-53
2022/06/25 02:43:24;;;;;;;14.18;5.90;;;;;;;14.92;69.27;100931.47;5093011;28;20051;-50
2022/06/25 02:45:50;;;;;;;23.83;7.00;;;;;;;15.00;68.86;100933.84;5093313;28;20032;-54
2022/06/25 02:48:16;;;;;;;15.93;6.47;;;;;;;15.13;68.73;100931.97;5093636;28;20031;-51
2022/06/25 02:50:42;;;;;;;21.50;7.28;;;;;;;14.78;70.24;100938.97;5093511;28;20035;-53
2022/06/25 02:53:08;;;;;;;17.58;6.78;;;;;;;14.94;69.85;100933.97;5093401;28;20411;-53
2022/06/25 03:01:04;;;;;;;22.55;7.18;;;;;;;14.68;71.18;100913.63;5093571;28;20043;-50
2022/06/25 03:03:30;;;;;;;15.13;7.05;;;;;;;14.56;71.64;100921.69;5093063;28;20027;-51
2022/06/25 03:05:56;;;;;;;30.50;7.90;;;;;;;14.64;71.21;100917.84;5092922;28;20027;-51
2022/06/25 03:08:23;;;;;;;24.50;7.18;;;;;;;14.74;71.20;100920.78;5093286;28;20464;-54
2022/06/25 03:10:49;;;;;;;17.73;6.30;;;;;;;14.72;71.10;100920.22;5091645;28;20055;-51
2022/06/25 03:13:16;;;;;;;28.85;7.50;;;;;;;14.81;70.87;100921.50;5092957;28;20047;-51
2022/06/25 03:15:42;;;;;;;29.67;7.47;;;;;;;14.49;72.03;100911.03;5092942;28;20115;-51
2022/06/25 03:18:08;;;;;;;25.83;7.70;;;;;;;14.72;71.22;100920.22;5092921;28;20024;-52
2022/06/25 03:20:34;;;;;;;34.22;8.38;;;;;;;14.78;70.87;100930.06;5093233;28;20131;-52
2022/06/25 03:23:01;;;;;;;28.15;7.22;;;;;;;14.68;71.52;100921.72;5092932;28;20039;-51
2022/06/25 03:25:27;;;;;;;34.40;7.78;;;;;;;14.69;71.48;100920.66;5092963;28;20035;-54
2022/06/25 03:27:53;;;;;;;33.15;8.48;;;;;;;14.60;71.91;100917.47;5092660;28;20095;-48
2022/06/25 03:30:20;;;;;;;29.25;8.10;;;;;;;14.69;71.70;100920.66;5091617;28;20024;-54
2022/06/25 03:32:46;;;;;;;38.58;8.88;;;;;;;14.73;71.44;100919.97;5092788;28;20026;-52
2022/06/25 03:35:12;;;;;;;36.25;8.45;;;;;;;14.64;71.90;100921.34;5092704;28;20141;-52
2022/06/25 03:37:38;;;;;;;36.70;8.57;;;;;;;14.60;71.95;100922.03;5091602;28;20031;-53
2022/06/25 03:40:05;;;;;;;41.17;9.63;;;;;;;14.22;73.46;100920.50;5092698;28;20034;-53
2022/06/25 03:42:31;;;;;;;36.60;9.52;;;;;;;14.51;72.41;100927.75;5092780;28;20028;-53
2022/06/25 03:44:57;;;;;;;41.17;8.82;;;;;;;14.50;72.28;100923.44;5092628;28;20162;-52
2022/06/25 03:47:23;;;;;;;40.50;9.27;;;;;;;14.47;72.54;100923.88;5096754;28;20085;-53
2022/06/25 03:49:50;;;;;;;29.55;8.95;;;;;;;14.46;72.67;100916.81;5096815;28;20032;-53
2022/06/25 03:52:16;;;;;;;44.10;10.32;;;;;;;14.35;73.60;100914.91;5096691;28;20028;-51
2022/06/25 03:54:42;;;;;;;37.38;9.18;;;;;;;14.22;74.29;100928.56;5096954;28;20031;-52
2022/06/25 03:57:08;;;;;;;41.72;9.65;;;;;;;14.33;74.12;100926.97;5096383;28;20074;-52
2022/06/25 03:59:35;;;;;;;33.72;9.57;;;;;;;14.38;73.62;100925.25;5096696;28;20028;-49
2022/06/25 04:02:01;;;;;;;53.60;10.43;;;;;;;14.25;73.98;100928.91;5096549;28;20038;-52
2022/06/25 04:04:27;;;;;;;39.47;9.32;;;;;;;14.41;73.07;100940.94;5096393;28;20107;-52
2022/06/25 04:06:53;;;;;;;35.72;9.80;;;;;;;14.35;73.66;100936.47;5096667;28;20024;-52
2022/06/25 04:09:19;;;;;;;44.78;10.52;;;;;;;14.30;73.76;100930.94;5096254;28;20024;-52
2022/06/25 04:11:46;;;;;;;38.47;9.02;;;;;;;14.41;73.38;100940.09;5096202;28;20028;-51
2022/06/25 04:14:12;;;;;;;37.63;8.80;;;;;;;14.51;72.95;100938.53;5096308;28;20031;-54
2022/06/25 04:16:38;;;;;;;40.60;9.63;;;;;;;14.49;72.93;100932.56;5096185;28;20066;-52
2022/06/25 04:19:05;;;;;;;35.08;8.27;;;;;;;14.44;73.42;100934.28;5096168;28;20546;-54
2022/06/25 04:21:32;;;;;;;36.25;9.02;;;;;;;14.44;73.50;100940.47;5096515;28;20032;-52
2022/06/25 04:23:59;;;;;;;45.42;9.82;;;;;;;14.40;73.70;100941.16;5096033;28;20561;-54
2022/06/25 04:26:25;;;;;;;40.38;8.82;;;;;;;14.41;73.59;100949.00;5096449;28;20036;-52
2022/06/25 04:29:04;;;;;;;44.45;9.88;;;;;;;14.26;74.03;100948.59;5095852;28;20480;-52
2022/06/25 04:31:34;;;;;;;37.53;9.15;;;;;;;14.13;74.44;100957.66;5096200;28;20040;-52
2022/06/25 04:34:00;;;;;;;38.95;8.90;;;;;;;14.20;73.94;100954.88;5096002;28;20368;-53
2022/06/25 04:36:27;;;;;;;40.30;9.27;;;;;;;14.25;73.81;100953.16;5095938;28;20089;-54
2022/06/25 04:38:54;;;;;;;49.38;9.63;;;;;;;14.20;73.97;100954.88;5095772;28;20062;-52
2022/06/25 04:41:21;;;;;;;36.78;10.00;;;;;;;14.18;73.64;100963.19;5095736;28;20063;-53
2022/06/25 04:43:47;;;;;;;43.85;9.30;;;;;;;14.05;74.31;100966.06;5095443;28;20050;-53
2022/06/25 04:46:13;;;;;;;33.33;8.25;;;;;;;14.08;74.11;100973.66;5095454;28;20070;-51
2022/06/25 04:48:40;;;;;;;48.83;9.50;;;;;;;14.11;74.02;100969.72;5095410;28;20036;-53
2022/06/25 04:51:07;;;;;;;53.38;9.70;;;;;;;14.03;74.21;100970.00;5095266;28;20020;-53
2022/06/25 04:53:33;;;;;;;41.97;8.63;;;;;;;14.07;74.05;100976.59;5095557;28;20024;-52
2022/06/25 04:55:59;;;;;;;36.60;8.77;;;;;;;13.96;74.15;100981.69;5095975;28;20028;-52
2022/06/25 04:58:26;;;;;;;48.30;9.82;;;;;;;14.04;74.20;100985.09;5095983;28;20039;-54
2022/06/25 05:00:52;;;;;;;32.80;9.13;;;;;;;14.12;73.64;100982.13;5095527;28;20028;-49
2022/06/25 05:03:18;;;;;;;45.88;9.50;;;;;;;14.16;73.28;100991.41;5095169;28;20373;-52
2022/06/25 05:05:45;;;;;;;40.47;9.15;;;;;;;14.03;73.63;100986.97;5095099;28;20020;-52
2022/06/25 05:08:11;;;;;;;38.25;8.73;;;;;;;14.04;73.65;100994.00;5095301;28;20028;-49
2022/06/25 05:10:37;;;;;;;39.08;8.23;;;;;;;14.04;73.44;100990.47;5095367;28;20028;-53
2022/06/25 05:13:13;;;;;;;35.22;8.60;;;;;;;13.97;73.75;100994.06;5095517;28;20062;-53
2022/06/25 05:15:40;;;;;;;37.42;9.20;;;;;;;13.98;73.61;100998.41;5095125;28;20031;-52
2022/06/25 05:18:11;;;;;;;42.80;9.15;;;;;;;13.82;74.19;101003.56;5095935;28;20024;-53
2022/06/25 05:20:39;;;;;;;39.30;8.90;;;;;;;13.88;73.99;100999.97;5095680;28;20165;-52
2022/06/25 05:23:06;;;;;;;46.78;9.70;;;;;;;13.96;73.38;100997.00;5094784;28;20028;-51
2022/06/25 05:25:33;;;;;;;33.70;8.40;;;;;;;13.91;73.59;100997.66;5094811;28;20031;-51
2022/06/25 05:27:59;;;;;;;45.55;8.57;;;;;;;13.80;74.29;101003.78;5095070;28;20513;-51
2022/06/25 05:30:26;;;;;;;35.15;8.60;;;;;;;13.91;73.55;101000.34;5095070;28;20032;-56
2022/06/25 05:32:53;;;;;;;40.75;9.05;;;;;;;13.94;73.38;100999.94;5094732;28;20109;-52
2022/06/25 05:35:19;;;;;;;37.15;8.52;;;;;;;13.89;73.44;101015.91;5094678;28;20391;-52
2022/06/25 05:37:45;;;;;;;37.78;8.70;;;;;;;13.90;73.48;101003.28;5094640;28;20024;-51
2022/06/25 05:40:12;;;;;;;45.45;8.80;;;;;;;13.88;73.31;101011.59;5094521;28;20102;-52
2022/06/25 05:42:38;;;;;;;37.80;8.65;;;;;;;13.77;74.18;101004.25;5094731;28;20083;-51
2022/06/25 05:45:05;;;;;;;31.08;7.53;;;;;;;13.78;74.40;101007.75;5094227;28;20044;-54
2022/06/25 05:47:31;;;;;;;37.67;8.88;;;;;;;13.74;74.15;101002.00;5094295;28;20032;-53
2022/06/25 05:49:58;;;;;;;42.25;9.20;;;;;;;13.55;75.23;101006.53;5094180;28;20034;-53
2022/06/25 05:52:24;;;;;;;36.20;8.82;;;;;;;13.63;74.62;100997.34;5094337;28;20028;-52
2022/06/25 05:54:51;;;;;;;41.20;9.32;;;;;;;13.60;75.06;100997.78;5094359;28;20440;-51
2022/06/25 05:57:17;;;;;;;42.92;8.02;;;;;;;13.57;75.26;101003.63;5094199;28;20068;-53
2022/06/25 05:59:43;;;;;;;32.03;7.97;;;;;;;13.60;75.06;100997.78;5094404;28;20032;-52
2022/06/25 06:02:10;;;;;;;47.65;8.55;;;;;;;13.62;75.01;101001.09;5093895;28;20046;-55
2022/06/25 06:04:36;;;;;;;38.17;8.63;;;;;;;13.65;74.68;100996.06;5094001;28;20031;-49
2022/06/25 06:07:02;;;;;;;35.35;7.90;;;;;;;13.64;74.75;101002.50;5093964;28;20108;-53
2022/06/25 06:09:29;;;;;;;39.30;9.35;;;;;;;13.58;74.96;101000.69;5093408;28;20039;-52
2022/06/25 06:11:56;;;;;;;38.20;8.27;;;;;;;13.54;74.96;101004.06;5094200;28;20031;-54
2022/06/25 06:14:23;;;;;;;42.53;8.55;;;;;;;13.51;74.89;101004.50;5094214;28;20052;-54
2022/06/25 06:16:49;;;;;;;42.67;8.73;;;;;;;13.54;75.05;101004.06;5093847;28;20035;-52
2022/06/25 06:19:15;;;;;;;36.60;7.95;;;;;;;13.54;74.76;100998.69;5093781;28;20073;-52
2022/06/25 06:21:41;;;;;;;31.60;8.45;;;;;;;13.53;75.08;101002.41;5093660;28;20020;-51
2022/06/25 06:24:08;;;;;;;39.97;10.07;;;;;;;13.52;74.82;101000.78;5093583;28;20024;-53
2022/06/25 06:26:35;;;;;;;36.15;8.05;;;;;;;13.32;75.63;101000.94;5092829;28;20020;-50
2022/06/25 06:29:01;;;;;;;40.40;9.40;;;;;;;13.46;75.19;100991.72;5093531;28;20024;-52
2022/06/25 06:31:28;;;;;;;41.85;9.38;;;;;;;13.46;75.11;100997.09;5093386;28;20107;-51
2022/06/25 06:33:54;;;;;;;42.45;9.77;;;;;;;13.50;74.74;101000.19;5094110;28;20035;-49
2022/06/25 06:36:20;;;;;;;44.33;9.63;;;;;;;13.45;75.14;100993.59;5093478;28;20024;-53
2022/06/25 06:38:46;;;;;;;38.83;9.18;;;;;;;13.39;75.35;101007.94;5093626;28;20066;-54
2022/06/25 06:41:17;;;;;;;47.05;9.07;;;;;;;13.48;74.92;101003.88;5093840;28;20032;-53
2022/06/25 06:43:45;;;;;;;46.78;9.52;;;;;;;13.54;74.60;101006.75;5092980;28;20574;-51
2022/06/25 06:46:13;;;;;;;47.70;9.82;;;;;;;13.47;74.87;101004.13;5093454;28;20043;-51
2022/06/25 06:48:40;;;;;;;44.03;10.05;;;;;;;13.50;74.95;101001.00;5093390;28;20050;-53
2022/06/25 06:51:07;;;;;;;42.33;8.70;;;;;;;13.45;75.08;101000.84;5093052;28;20020;-53
2022/06/25 06:53:34;;;;;;;39.65;10.05;;;;;;;13.38;75.21;101011.66;5093264;28;20024;-53
2022/06/25 06:56:00;;;;;;;36.00;8.25;;;;;;;13.42;75.04;101007.47;5093253;28;20020;-53
2022/06/25 06:58:28;;;;;;;43.67;9.07;;;;;;;13.39;75.67;101010.63;5093444;28;20397;-52
2022/06/25 07:00:54;;;;;;;35.00;8.05;;;;;;;13.25;76.11;101011.75;5093269;28;20024;-52
2022/06/25 07:03:20;;;;;;;39.40;9.15;;;;;;;13.37;75.46;101010.00;5093093;28;20035;-53
2022/06/25 07:05:46;;;;;;;38.20;8.98;;;;;;;13.27;75.97;101016.91;5093027;28;20031;-51
2022/06/25 07:08:13;;;;;;;30.17;7.82;;;;;;;13.37;75.66;101012.69;5092737;28;20020;-49
2022/06/25 07:10:39;;;;;;;35.80;7.85;;;;;;;13.35;75.72;101009.41;5093288;28;20095;-49
2022/06/25 07:13:05;;;;;;;39.53;8.57;;;;;;;13.34;75.94;101017.69;5093312;28;20020;-49
2022/06/25 07:15:31;;;;;;;48.22;9.10;;;;;;;13.36;75.83;101008.34;5093315;28;20028;-49
2022/06/25 07:17:57;;;;;;;47.55;9.43;;;;;;;13.34;75.70;101009.63;5093023;28;20059;-49
2022/06/25 07:20:24;;;;;;;37.72;8.10;;;;;;;13.35;75.39;101005.88;5092385;28;20489;-49
2022/06/25 07:22:50;;;;;;;35.17;8.00;;;;;;;13.37;75.17;101001.09;5092996;28;20036;-50
2022/06/25 07:25:16;;;;;;;40.80;8.60;;;;;;;13.40;75.12;101008.75;5093024;28;20426;-48
2022/06/25 07:27:44;;;;;;;42.25;8.23;;;;;;;13.33;75.47;101010.69;5092881;28;20031;-50
2022/06/25 07:30:11;;;;;;;37.90;8.13;;;;;;;13.40;75.26;101004.19;5092772;28;20051;-52
2022/06/25 07:32:38;;;;;;;37.25;8.48;;;;;;;13.52;74.62;101011.53;5092899;28;20035;-49
2022/06/25 07:35:04;;;;;;;40.20;8.25;;;;;;;13.50;74.61;101005.56;5093143;28;20392;-49
2022/06/25 07:37:30;;;;;;;39.22;8.10;;;;;;;13.39;74.88;101002.53;5093016;28;20452;-49
2022/06/25 07:39:56;;;;;;;47.40;9.40;;;;;;;13.45;74.99;101007.03;5093255;28;20207;-51
2022/06/25 07:42:23;;;;;;;34.85;8.05;;;;;;;13.42;75.06;101012.03;5093230;28;20026;-51
2022/06/25 07:44:49;;;;;;;41.20;9.25;;;;;;;13.46;74.96;101003.31;5092671;28;20151;-50
2022/06/25 07:47:16;;;;;;;38.95;7.72;;;;;;;13.48;74.97;101011.97;5092622;28;20035;-50
2022/06/25 07:52:27;;;;;;;37.88;8.05;;;;;;;13.33;75.70;101013.38;5092573;28;20438;-50
2022/06/25 07:54:53;;;;;;;36.42;8.57;;;;;;;13.40;75.72;101014.13;5092646;28;20526;-53
2022/06/25 07:57:19;;;;;;;42.83;8.93;;;;;;;13.36;75.84;101016.41;5092563;28;20099;-51
2022/06/25 07:59:45;;;;;;;40.50;8.55;;;;;;;13.39;75.75;101015.16;5092850;28;20020;-52
2022/06/25 08:02:11;;;;;;;52.72;9.35;;;;;;;13.37;76.06;101020.75;5092847;28;20081;-52
2022/06/25 08:04:38;;;;;;;37.38;8.77;;;;;;;13.27;76.35;101014.22;5092517;28;20426;-52
2022/06/25 08:07:04;;;;;;;33.03;8.48;;;;;;;13.25;76.41;101009.06;5092820;28;20070;-52
2022/06/25 08:09:30;;;;;;;39.20;8.65;;;;;;;13.25;76.55;101011.75;5092518;28;20024;-52
2022/06/25 08:11:56;;;;;;;36.97;8.07;;;;;;;13.26;76.15;101015.25;5092635;28;20153;-50
2022/06/25 08:14:23;;;;;;;35.30;8.20;;;;;;;13.26;76.03;101012.56;5092408;28;20020;-52
2022/06/25 08:16:49;;;;;;;36.13;7.60;;;;;;;13.23;76.35;101011.16;5092297;28;20051;-50
2022/06/25 08:19:15;;;;;;;44.53;8.20;;;;;;;13.19;76.26;101009.91;5092510;28;20460;-49
2022/06/25 08:21:42;;;;;;;34.58;8.32;;;;;;;13.24;76.22;101014.66;5092282;28;20039;-52
2022/06/25 08:24:08;;;;;;;41.58;10.20;;;;;;;13.24;76.17;101009.28;5092535;28;20027;-52
2022/06/25 08:26:34;;;;;;;34.40;8.77;;;;;;;13.26;76.24;101013.41;5092634;28;20024;-51
2022/06/25 08:29:00;;;;;;;44.20;8.05;;;;;;;13.34;75.78;101007.75;5092333;28;20507;-50
2022/06/25 08:31:28;;;;;;;40.28;9.13;;;;;;;13.26;76.18;101012.56;5090677;28;20456;-49
2022/06/25 08:33:54;;;;;;;41.50;8.77;;;;;;;13.18;76.33;101010.97;5095892;28;20024;-49
2022/06/25 08:36:20;;;;;;;39.80;8.52;;;;;;;13.24;76.32;101014.66;5095904;28;20035;-51
2022/06/25 08:38:46;;;;;;;39.47;8.32;;;;;;;13.17;76.52;101006.63;5095674;28;20098;-52
2022/06/25 08:41:12;;;;;;;38.42;7.95;;;;;;;13.23;76.23;101013.84;5096120;28;20036;-50
2022/06/25 08:43:40;;;;;;;49.97;9.02;;;;;;;13.28;76.32;101008.63;5095450;28;20551;-53
2022/06/25 08:46:06;;;;;;;48.75;8.73;;;;;;;13.30;75.87;101014.59;5095749;28;20106;-52
2022/06/25 08:48:35;;;;;;;49.22;9.75;;;;;;;13.27;76.10;101004.31;5095887;28;20031;-53
2022/06/25 08:51:02;;;;;;;41.08;9.90;;;;;;;13.22;76.34;101008.69;5095769;28;20028;-52
2022/06/25 08:53:34;;;;;;;45.95;8.40;;;;;;;13.19;76.16;101017.97;5095503;28;20068;-52
2022/06/25 08:56:02;;;;;;;42.63;8.15;;;;;;;13.08;76.88;101016.00;5096055;28;20436;-52
2022/06/25 08:58:29;;;;;;;39.42;9.80;;;;;;;13.19;76.37;101017.97;5095720;28;20090;-53
2022/06/25 09:00:55;;;;;;;49.60;8.52;;;;;;;13.05;77.07;101017.28;5095342;28;20410;-51
2022/06/25 09:03:22;;;;;;;53.97;9.88;;;;;;;13.05;76.89;101013.75;5095183;28;20064;-53
2022/06/25 09:05:48;;;;;;;41.40;8.75;;;;;;;13.11;76.55;101016.41;5095774;28;20067;-52
2022/06/25 09:08:15;;;;;;;44.13;9.25;;;;;;;13.15;76.49;101017.56;5095234;28;20097;-51
2022/06/25 09:10:45;;;;;;;38.65;8.35;;;;;;;13.15;76.48;101022.94;5095248;28;20028;-53
2022/06/25 09:13:13;;;;;;;36.17;9.00;;;;;;;13.03;76.85;101022.03;5094904;28;20157;-53
2022/06/25 09:15:45;;;;;;;42.95;9.25;;;;;;;13.00;77.26;101018.97;5095213;28;20031;-51
2022/06/25 09:18:19;;;;;;;40.63;8.85;;;;;;;13.00;77.46;101013.59;5094976;28;20111;-52
2022/06/25 09:21:02;;;;;;;44.67;9.10;;;;;;;12.99;77.12;101012.75;5095364;28;20024;-53
2022/06/25 09:23:34;;;;;;;47.08;10.18;;;;;;;12.95;77.83;101015.06;5095008;28;20031;-51
2022/06/25 09:26:03;;;;;;;39.03;8.05;;;;;;;12.98;77.58;101015.66;5094822;28;20114;-53
2022/06/25 09:28:32;;;;;;;31.95;7.85;;;;;;;13.05;77.29;101028.00;5094934;28;20077;-53
2022/06/25 09:30:58;;;;;;;39.58;8.68;;;;;;;13.00;77.49;101019.78;5094661;28;20524;-53
2022/06/25 09:33:25;;;;;;;42.17;8.07;;;;;;;13.04;77.34;101020.97;5094734;28;20028;-53
2022/06/25 09:35:53;;;;;;;47.58;10.07;;;;;;;13.01;77.41;101020.59;5094635;28;20024;-54
2022/06/25 09:38:22;;;;;;;36.38;8.52;;;;;;;13.06;77.19;101012.72;5094906;28;20023;-52
2022/06/25 09:40:53;;;;;;;37.53;8.23;;;;;;;13.03;77.51;101016.66;5094884;28;20020;-51
2022/06/25 09:43:21;;;;;;;49.55;8.88;;;;;;;12.94;77.60;101016.09;5093621;28;20044;-50
2022/06/25 09:45:52;;;;;;;31.60;8.95;;;;;;;13.06;77.49;101015.41;5094529;28;20031;-51
2022/06/25 09:48:21;;;;;;;35.17;8.27;;;;;;;13.00;77.76;101009.03;5094525;28;20028;-51
2022/06/25 09:51:20;;;;;;;40.08;9.60;;;;;;;12.97;77.95;101012.13;5094392;28;20108;-49
2022/06/25 09:53:52;;;;;;;37.08;8.15;;;;;;;12.98;77.98;101010.28;5094252;28;20066;-50
2022/06/25 09:56:26;;;;;;;36.67;8.85;;;;;;;12.93;78.31;101006.38;5094497;28;20477;-53
2022/06/25 09:58:53;;;;;;;32.03;7.93;;;;;;;12.88;78.49;101016.13;5094407;28;20107;-51
2022/06/25 10:01:23;;;;;;;40.10;9.35;;;;;;;12.98;77.96;101007.59;5094161;28;20028;-50
2022/06/25 10:03:49;;;;;;;42.28;9.32;;;;;;;12.98;77.91;101010.28;5094172;28;20016;-51
2022/06/25 10:06:18;;;;;;;32.05;8.35;;;;;;;12.94;78.35;101013.41;5094073;28;20020;-49
2022/06/25 10:08:49;;;;;;;36.30;8.27;;;;;;;12.93;78.16;101018.97;5094179;28;20016;-52
2022/06/25 10:11:27;;;;;;;39.03;8.95;;;;;;;13.00;77.89;101014.41;5094671;28;20028;-51
2022/06/25 10:13:54;;;;;;;36.58;8.45;;;;;;;12.99;77.87;101019.97;5094311;28;20476;-49
2022/06/25 10:16:23;;;;;;;47.70;8.85;;;;;;;13.00;78.00;101021.66;5094241;28;20027;-54
2022/06/25 10:18:49;;;;;;;45.05;9.90;;;;;;;13.01;77.70;101020.59;5093998;28;20023;-53
2022/06/25 10:21:18;;;;;;;36.60;9.50;;;;;;;12.98;77.72;101032.59;5093831;28;20028;-51
2022/06/25 10:23:45;;;;;;;32.67;8.02;;;;;;;13.00;78.24;101033.22;5094431;28;20020;-50
2022/06/25 10:26:13;;;;;;;38.10;8.10;;;;;;;13.05;78.15;101032.56;5094012;28;20373;-53
2022/06/25 10:28:41;;;;;;;34.03;7.88;;;;;;;12.93;78.08;101035.09;5094425;28;20032;-53
2022/06/25 10:31:11;;;;;;;48.20;9.40;;;;;;;12.89;78.19;101029.34;5094306;28;20051;-52
2022/06/25 10:34:05;;;;;;;45.83;8.88;;;;;;;12.92;78.61;101030.78;5094207;28;20035;-49
2022/06/25 10:36:57;;;;;;;41.03;10.70;;;;;;;12.98;78.48;101023.72;5093476;28;20123;-53
2022/06/25 10:39:26;;;;;;;38.47;9.20;;;;;;;12.91;78.66;101038.00;5093485;28;20045;-52
2022/06/25 10:45:04;;;;;;;40.55;9.93;;;;;;;12.97;78.45;101035.50;5093443;28;20051;-52
2022/06/25 10:47:41;;;;;;;36.38;9.13;;;;;;;12.87;78.78;101033.28;5093381;28;20502;-53
2022/06/25 10:50:22;;;;;;;35.00;8.70;;;;;;;12.94;78.68;101029.53;5093328;28;20031;-49
2022/06/25 10:53:03;;;;;;;45.05;9.32;;;;;;;12.95;78.70;101038.41;5093950;28;20024;-51
2022/06/25 10:55:37;;;;;;;37.67;9.18;;;;;;;12.86;78.76;101045.06;5092904;28;20073;-52
2022/06/25 10:58:18;;;;;;;38.90;9.70;;;;;;;12.82;78.89;101038.47;5093751;28;20066;-51
2022/06/25 11:00:50;;;;;;;44.22;9.85;;;;;;;12.82;79.06;101039.31;5093040;28;20510;-52
2022/06/25 11:03:38;;;;;;;44.22;9.43;;;;;;;12.83;79.32;101040.16;5093245;28;20032;-49
2022/06/25 11:06:24;;;;;;;39.00;9.32;;;;;;;12.75;79.65;101043.06;5092918;28;20036;-49
2022/06/25 11:08:52;;;;;;;38.55;8.93;;;;;;;12.76;79.06;101053.59;5093500;28;20031;-50
2022/06/25 11:11:29;;;;;;;41.85;9.57;;;;;;;12.79;79.43;101045.13;5092984;28;20027;-49
2022/06/25 11:14:00;;;;;;;35.53;8.32;;;;;;;12.80;79.28;101049.44;5093349;28;20020;-51
2022/06/25 11:16:27;;;;;;;41.72;8.85;;;;;;;12.65;79.89;101047.03;5093001;28;20472;-51
2022/06/25 11:18:56;;;;;;;48.47;9.38;;;;;;;12.69;79.74;101048.25;5093033;28;20035;-52
2022/06/25 11:21:34;;;;;;;48.15;9.77;;;;;;;12.67;79.91;101044.16;5092893;28;20024;-51
2022/06/25 11:24:15;;;;;;;50.75;11.00;;;;;;;12.80;79.34;101037.88;5092975;28;20036;-50
2022/06/25 11:29:34;;;;;;;46.95;9.93;;;;;;;12.82;79.19;101044.66;5093201;28;20034;-51
2022/06/25 11:32:01;;;;;;;49.75;9.68;;;;;;;12.76;79.44;101042.84;5092895;28;20032;-52
2022/06/25 11:34:29;;;;;;;37.88;9.43;;;;;;;12.74;79.61;101047.63;5092795;28;20115;-51
2022/06/25 11:37:00;;;;;;;35.38;8.90;;;;;;;12.68;79.76;101043.13;5092774;28;20020;-52